sensor_id;sensor_type;location;lat;lon;timestamp;temperature;humidity
29501;DHT22;16450;50.288;10.966;2023-07-20T00:00:10;18.00;97.60
29501;DHT22;16450;50.288;10.966;2023-07-20T00:03:14;18.00;97.70
29501;DHT22;16450;50.288;10.966;2023-07-20T00:06:24;17.90;97.60
29501;DHT22;16450;50.288;10.966;2023-07-20T00:09:27;17.90;97.60
29501;DHT22;16450;50.288;10.966;2023-07-20T00:12:29;17.90;97.70
29501;DHT22;16450;50.288;10.966;2023-07-20T00:15:31;17.90;97.70
29501;DHT22;16450;50.288;10.966;2023-07-20T00:18:33;17.90;97.80
29501;DHT22;16450;50.288;10.966;2023-07-20T00:21:35;17.80;97.80
29501;DHT22;16450;50.288;10.966;2023-07-20T00:24:37;17.80;97.80
29501;DHT22;16450;50.288;10.966;2023-07-20T00:27:39;17.80;97.80
29501;DHT22;16450;50.288;10.966;2023-07-20T00:30:41;17.80;97.80
29501;DHT22;16450;50.288;10.966;2023-07-20T00:33:43;17.70;97.70
29501;DHT22;16450;50.288;10.966;2023-07-20T00:36:45;17.70;97.70
29501;DHT22;16450;50.288;10.966;2023-07-20T00:39:47;17.70;97.80
29501;DHT22;16450;50.288;10.966;2023-07-20T00:42:49;17.70;98.00
29501;DHT22;16450;50.288;10.966;2023-07-20T00:45:51;17.60;98.10
29501;DHT22;16450;50.288;10.966;2023-07-20T00:48:53;17.60;98.10
29501;DHT22;16450;50.288;10.966;2023-07-20T00:51:55;17.60;98.20
29501;DHT22;16450;50.288;10.966;2023-07-20T00:54:57;17.50;98.10
29501;DHT22;16450;50.288;10.966;2023-07-20T00:57:59;17.50;98.20
29501;DHT22;16450;50.288;10.966;2023-07-20T01:01:01;17.50;98.10
29501;DHT22;16450;50.288;10.966;2023-07-20T01:04:03;17.50;98.00
29501;DHT22;16450;50.288;10.966;2023-07-20T01:10:38;17.40;98.00
29501;DHT22;16450;50.288;10.966;2023-07-20T01:13:45;17.30;97.90
29501;DHT22;16450;50.288;10.966;2023-07-20T01:16:51;17.30;98.00
29501;DHT22;16450;50.288;10.966;2023-07-20T01:19:54;17.30;98.30
29501;DHT22;16450;50.288;10.966;2023-07-20T01:23:16;17.20;98.30
29501;DHT22;16450;50.288;10.966;2023-07-20T01:33:24;17.20;98.60
29501;DHT22;16450;50.288;10.966;2023-07-20T01:36:33;17.20;98.70
29501;DHT22;16450;50.288;10.966;2023-07-20T01:39:37;17.20;98.80
29501;DHT22;16450;50.288;10.966;2023-07-20T01:42:44;17.10;98.70
29501;DHT22;16450;50.288;10.966;2023-07-20T01:45:47;17.10;98.80
29501;DHT22;16450;50.288;10.966;2023-07-20T01:48:49;17.10;98.80
29501;DHT22;16450;50.288;10.966;2023-07-20T01:51:52;17.10;98.70
29501;DHT22;16450;50.288;10.966;2023-07-20T01:54:54;17.00;98.60
29501;DHT22;16450;50.288;10.966;2023-07-20T01:57:56;17.00;98.60
29501;DHT22;16450;50.288;10.966;2023-07-20T02:00:58;16.90;98.40
29501;DHT22;16450;50.288;10.966;2023-07-20T02:04:00;16.90;98.30
29501;DHT22;16450;50.288;10.966;2023-07-20T02:07:02;16.80;98.40
29501;DHT22;16450;50.288;10.966;2023-07-20T02:10:04;16.80;98.50
29501;DHT22;16450;50.288;10.966;2023-07-20T02:13:06;16.70;98.60
29501;DHT22;16450;50.288;10.966;2023-07-20T02:16:08;16.70;98.80
29501;DHT22;16450;50.288;10.966;2023-07-20T02:19:10;16.70;98.90
29501;DHT22;16450;50.288;10.966;2023-07-20T02:22:12;16.70;98.90
29501;DHT22;16450;50.288;10.966;2023-07-20T02:25:14;16.60;99.10
29501;DHT22;16450;50.288;10.966;2023-07-20T02:28:16;16.60;99.10
29501;DHT22;16450;50.288;10.966;2023-07-20T02:31:18;16.50;99.10
29501;DHT22;16450;50.288;10.966;2023-07-20T02:34:20;16.60;99.10
29501;DHT22;16450;50.288;10.966;2023-07-20T02:37:22;16.60;98.90
29501;DHT22;16450;50.288;10.966;2023-07-20T02:40:24;16.50;98.70
29501;DHT22;16450;50.288;10.966;2023-07-20T02:43:26;16.50;98.80
29501;DHT22;16450;50.288;10.966;2023-07-20T02:46:27;16.40;98.70
29501;DHT22;16450;50.288;10.966;2023-07-20T02:49:31;16.40;98.80
29501;DHT22;16450;50.288;10.966;2023-07-20T02:52:33;16.30;98.70
29501;DHT22;16450;50.288;10.966;2023-07-20T02:55:35;16.20;98.80
29501;DHT22;16450;50.288;10.966;2023-07-20T02:58:40;16.20;98.80
29501;DHT22;16450;50.288;10.966;2023-07-20T03:01:45;16.20;98.90
29501;DHT22;16450;50.288;10.966;2023-07-20T03:04:46;16.20;98.90
29501;DHT22;16450;50.288;10.966;2023-07-20T03:07:49;16.00;98.80
29501;DHT22;16450;50.288;10.966;2023-07-20T03:10:51;16.00;98.80
29501;DHT22;16450;50.288;10.966;2023-07-20T03:13:53;15.90;98.80
29501;DHT22;16450;50.288;10.966;2023-07-20T03:16:55;15.90;98.90
29501;DHT22;16450;50.288;10.966;2023-07-20T03:19:57;15.90;98.90
29501;DHT22;16450;50.288;10.966;2023-07-20T03:22:59;15.90;99.10
29501;DHT22;16450;50.288;10.966;2023-07-20T03:26:01;15.80;99.20
29501;DHT22;16450;50.288;10.966;2023-07-20T03:29:04;15.80;99.30
29501;DHT22;16450;50.288;10.966;2023-07-20T03:32:06;15.80;99.50
29501;DHT22;16450;50.288;10.966;2023-07-20T03:35:09;15.80;99.50
29501;DHT22;16450;50.288;10.966;2023-07-20T03:38:10;15.80;99.50
29501;DHT22;16450;50.288;10.966;2023-07-20T03:41:12;15.70;99.30
29501;DHT22;16450;50.288;10.966;2023-07-20T03:44:14;15.70;99.30
29501;DHT22;16450;50.288;10.966;2023-07-20T03:47:16;15.70;99.30
29501;DHT22;16450;50.288;10.966;2023-07-20T03:50:18;15.70;99.40
29501;DHT22;16450;50.288;10.966;2023-07-20T03:53:20;15.70;99.40
29501;DHT22;16450;50.288;10.966;2023-07-20T03:56:23;15.60;99.30
29501;DHT22;16450;50.288;10.966;2023-07-20T03:59:26;15.60;99.40
29501;DHT22;16450;50.288;10.966;2023-07-20T04:02:28;15.60;99.50
29501;DHT22;16450;50.288;10.966;2023-07-20T04:05:30;15.60;99.50
29501;DHT22;16450;50.288;10.966;2023-07-20T04:08:32;15.50;99.60
29501;DHT22;16450;50.288;10.966;2023-07-20T04:11:34;15.50;99.60
29501;DHT22;16450;50.288;10.966;2023-07-20T04:14:36;15.50;99.60
29501;DHT22;16450;50.288;10.966;2023-07-20T04:17:39;15.50;99.70
29501;DHT22;16450;50.288;10.966;2023-07-20T04:20:42;15.50;99.80
29501;DHT22;16450;50.288;10.966;2023-07-20T04:23:44;15.50;99.90
29501;DHT22;16450;50.288;10.966;2023-07-20T04:26:47;15.50;99.90
29501;DHT22;16450;50.288;10.966;2023-07-20T04:29:49;15.50;99.90
29501;DHT22;16450;50.288;10.966;2023-07-20T04:32:51;15.50;99.90
29501;DHT22;16450;50.288;10.966;2023-07-20T04:35:53;15.60;99.90
29501;DHT22;16450;50.288;10.966;2023-07-20T04:38:56;15.60;99.90
29501;DHT22;16450;50.288;10.966;2023-07-20T04:41:58;15.60;99.90
29501;DHT22;16450;50.288;10.966;2023-07-20T04:45:00;15.60;99.90
29501;DHT22;16450;50.288;10.966;2023-07-20T04:48:10;15.70;99.90
29501;DHT22;16450;50.288;10.966;2023-07-20T04:51:13;15.70;99.90
29501;DHT22;16450;50.288;10.966;2023-07-20T04:54:15;15.80;99.90
29501;DHT22;16450;50.288;10.966;2023-07-20T04:57:18;15.90;99.90
29501;DHT22;16450;50.288;10.966;2023-07-20T05:00:20;16.00;99.90
29501;DHT22;16450;50.288;10.966;2023-07-20T05:03:23;16.10;99.90
29501;DHT22;16450;50.288;10.966;2023-07-20T05:06:25;16.10;99.90
29501;DHT22;16450;50.288;10.966;2023-07-20T05:09:27;16.20;99.90
29501;DHT22;16450;50.288;10.966;2023-07-20T05:12:29;16.30;99.90
29501;DHT22;16450;50.288;10.966;2023-07-20T05:15:33;16.30;99.90
29501;DHT22;16450;50.288;10.966;2023-07-20T05:18:35;16.40;99.90
29501;DHT22;16450;50.288;10.966;2023-07-20T05:21:37;16.50;99.90
29501;DHT22;16450;50.288;10.966;2023-07-20T05:24:39;16.60;99.90
29501;DHT22;16450;50.288;10.966;2023-07-20T05:27:41;16.80;99.90
29501;DHT22;16450;50.288;10.966;2023-07-20T05:30:43;17.00;99.90
29501;DHT22;16450;50.288;10.966;2023-07-20T05:33:44;17.30;99.90
29501;DHT22;16450;50.288;10.966;2023-07-20T05:36:46;17.60;99.90
29501;DHT22;16450;50.288;10.966;2023-07-20T05:39:48;18.00;99.90
29501;DHT22;16450;50.288;10.966;2023-07-20T05:42:50;18.30;99.90
29501;DHT22;16450;50.288;10.966;2023-07-20T05:45:53;18.70;99.90
29501;DHT22;16450;50.288;10.966;2023-07-20T05:48:55;19.00;99.90
29501;DHT22;16450;50.288;10.966;2023-07-20T05:51:57;19.30;99.90
29501;DHT22;16450;50.288;10.966;2023-07-20T05:54:59;19.50;99.90
29501;DHT22;16450;50.288;10.966;2023-07-20T05:58:01;19.60;99.90
29501;DHT22;16450;50.288;10.966;2023-07-20T06:01:03;19.70;99.90
29501;DHT22;16450;50.288;10.966;2023-07-20T06:04:07;19.80;99.90
29501;DHT22;16450;50.288;10.966;2023-07-20T06:07:09;20.00;99.90
29501;DHT22;16450;50.288;10.966;2023-07-20T06:10:11;20.40;99.90
29501;DHT22;16450;50.288;10.966;2023-07-20T06:13:13;20.70;99.90
29501;DHT22;16450;50.288;10.966;2023-07-20T06:16:14;21.00;99.90
29501;DHT22;16450;50.288;10.966;2023-07-20T06:19:17;21.40;99.90
29501;DHT22;16450;50.288;10.966;2023-07-20T06:22:19;21.90;99.90
29501;DHT22;16450;50.288;10.966;2023-07-20T06:25:20;22.30;99.90
29501;DHT22;16450;50.288;10.966;2023-07-20T06:28:22;22.70;99.90
29501;DHT22;16450;50.288;10.966;2023-07-20T06:31:24;22.90;99.90
29501;DHT22;16450;50.288;10.966;2023-07-20T06:34:26;23.20;99.80
29501;DHT22;16450;50.288;10.966;2023-07-20T06:37:29;23.40;99.20
29501;DHT22;16450;50.288;10.966;2023-07-20T06:40:31;23.50;97.90
29501;DHT22;16450;50.288;10.966;2023-07-20T06:43:34;23.60;97.60
29501;DHT22;16450;50.288;10.966;2023-07-20T06:46:39;23.50;97.40
29501;DHT22;16450;50.288;10.966;2023-07-20T06:49:41;23.40;97.20
29501;DHT22;16450;50.288;10.966;2023-07-20T06:52:43;23.50;97.00
29501;DHT22;16450;50.288;10.966;2023-07-20T06:55:45;23.50;96.60
29501;DHT22;16450;50.288;10.966;2023-07-20T06:58:48;23.40;96.20
29501;DHT22;16450;50.288;10.966;2023-07-20T07:01:50;23.20;95.60
29501;DHT22;16450;50.288;10.966;2023-07-20T07:04:52;23.10;95.50
29501;DHT22;16450;50.288;10.966;2023-07-20T07:08:01;22.80;95.50
29501;DHT22;16450;50.288;10.966;2023-07-20T07:11:03;22.70;95.70
29501;DHT22;16450;50.288;10.966;2023-07-20T07:14:05;22.60;96.00
29501;DHT22;16450;50.288;10.966;2023-07-20T07:17:09;22.60;96.30
29501;DHT22;16450;50.288;10.966;2023-07-20T07:20:12;22.70;96.50
29501;DHT22;16450;50.288;10.966;2023-07-20T07:23:22;22.70;95.90
29501;DHT22;16450;50.288;10.966;2023-07-20T07:26:24;22.80;95.40
29501;DHT22;16450;50.288;10.966;2023-07-20T07:29:26;22.80;95.80
29501;DHT22;16450;50.288;10.966;2023-07-20T07:32:29;22.90;95.90
29501;DHT22;16450;50.288;10.966;2023-07-20T07:35:31;23.00;95.50
29501;DHT22;16450;50.288;10.966;2023-07-20T07:38:34;23.10;94.20
29501;DHT22;16450;50.288;10.966;2023-07-20T07:41:56;23.00;94.10
29501;DHT22;16450;50.288;10.966;2023-07-20T07:44:58;23.10;94.30
29501;DHT22;16450;50.288;10.966;2023-07-20T07:48:00;23.10;94.70
29501;DHT22;16450;50.288;10.966;2023-07-20T07:51:02;23.40;94.90
29501;DHT22;16450;50.288;10.966;2023-07-20T07:54:04;23.50;95.00
29501;DHT22;16450;50.288;10.966;2023-07-20T07:57:06;23.70;93.90
29501;DHT22;16450;50.288;10.966;2023-07-20T08:00:08;23.60;92.40
29501;DHT22;16450;50.288;10.966;2023-07-20T08:03:16;23.40;91.60
29501;DHT22;16450;50.288;10.966;2023-07-20T08:06:18;23.30;92.30
29501;DHT22;16450;50.288;10.966;2023-07-20T08:09:20;23.30;92.90
29501;DHT22;16450;50.288;10.966;2023-07-20T08:12:22;23.40;93.60
29501;DHT22;16450;50.288;10.966;2023-07-20T08:15:24;23.60;93.80
29501;DHT22;16450;50.288;10.966;2023-07-20T08:18:26;24.00;94.50
29501;DHT22;16450;50.288;10.966;2023-07-20T08:21:28;24.30;94.50
29501;DHT22;16450;50.288;10.966;2023-07-20T08:24:30;24.60;93.80
29501;DHT22;16450;50.288;10.966;2023-07-20T08:27:32;24.70;92.70
29501;DHT22;16450;50.288;10.966;2023-07-20T08:30:45;24.90;91.90
29501;DHT22;16450;50.288;10.966;2023-07-20T08:33:47;24.90;85.70
29501;DHT22;16450;50.288;10.966;2023-07-20T08:36:50;24.70;88.70
29501;DHT22;16450;50.288;10.966;2023-07-20T08:39:52;24.60;88.80
29501;DHT22;16450;50.288;10.966;2023-07-20T08:42:54;24.60;90.00
29501;DHT22;16450;50.288;10.966;2023-07-20T08:45:57;24.70;90.10
29501;DHT22;16450;50.288;10.966;2023-07-20T08:48:59;24.80;89.10
29501;DHT22;16450;50.288;10.966;2023-07-20T08:52:06;24.90;87.60
29501;DHT22;16450;50.288;10.966;2023-07-20T08:55:08;24.80;86.30
29501;DHT22;16450;50.288;10.966;2023-07-20T08:58:12;24.80;87.00
29501;DHT22;16450;50.288;10.966;2023-07-20T09:01:17;24.90;86.90
29501;DHT22;16450;50.288;10.966;2023-07-20T09:04:20;25.10;88.60
29501;DHT22;16450;50.288;10.966;2023-07-20T09:07:22;25.40;89.60
29501;DHT22;16450;50.288;10.966;2023-07-20T09:10:26;25.70;87.70
29501;DHT22;16450;50.288;10.966;2023-07-20T09:13:27;25.80;86.60
29501;DHT22;16450;50.288;10.966;2023-07-20T09:16:29;26.00;85.80
29501;DHT22;16450;50.288;10.966;2023-07-20T09:19:31;26.10;82.50
29501;DHT22;16450;50.288;10.966;2023-07-20T09:22:35;26.00;81.40
29501;DHT22;16450;50.288;10.966;2023-07-20T09:25:37;26.00;79.90
29501;DHT22;16450;50.288;10.966;2023-07-20T09:28:51;25.80;79.60
29501;DHT22;16450;50.288;10.966;2023-07-20T09:32:04;25.80;76.00
29501;DHT22;16450;50.288;10.966;2023-07-20T09:35:07;25.70;77.70
29501;DHT22;16450;50.288;10.966;2023-07-20T09:38:17;25.80;81.30
29501;DHT22;16450;50.288;10.966;2023-07-20T09:41:22;25.80;80.10
29501;DHT22;16450;50.288;10.966;2023-07-20T09:44:27;25.90;79.90
29501;DHT22;16450;50.288;10.966;2023-07-20T09:47:36;25.90;77.40
29501;DHT22;16450;50.288;10.966;2023-07-20T09:50:40;25.90;74.30
29501;DHT22;16450;50.288;10.966;2023-07-20T09:53:45;25.70;74.30
29501;DHT22;16450;50.288;10.966;2023-07-20T09:56:50;25.50;74.60
29501;DHT22;16450;50.288;10.966;2023-07-20T09:59:53;25.30;74.70
29501;DHT22;16450;50.288;10.966;2023-07-20T10:02:56;25.20;78.40
29501;DHT22;16450;50.288;10.966;2023-07-20T10:06:06;25.20;79.10
29501;DHT22;16450;50.288;10.966;2023-07-20T10:09:10;25.40;76.60
29501;DHT22;16450;50.288;10.966;2023-07-20T10:12:15;25.60;78.00
29501;DHT22;16450;50.288;10.966;2023-07-20T10:15:28;25.60;77.20
29501;DHT22;16450;50.288;10.966;2023-07-20T10:18:51;25.80;74.40
29501;DHT22;16450;50.288;10.966;2023-07-20T10:22:00;25.90;72.60
29501;DHT22;16450;50.288;10.966;2023-07-20T10:25:06;26.00;72.10
29501;DHT22;16450;50.288;10.966;2023-07-20T10:28:10;26.10;74.30
29501;DHT22;16450;50.288;10.966;2023-07-20T10:31:13;26.00;72.20
29501;DHT22;16450;50.288;10.966;2023-07-20T10:34:16;26.10;71.50
29501;DHT22;16450;50.288;10.966;2023-07-20T10:40:55;26.00;63.90
29501;DHT22;16450;50.288;10.966;2023-07-20T10:44:06;25.80;64.40
29501;DHT22;16450;50.288;10.966;2023-07-20T10:47:12;25.40;64.50
29501;DHT22;16450;50.288;10.966;2023-07-20T10:50:15;25.30;66.90
29501;DHT22;16450;50.288;10.966;2023-07-20T10:53:18;24.90;68.60
29501;DHT22;16450;50.288;10.966;2023-07-20T10:56:21;24.80;67.70
29501;DHT22;16450;50.288;10.966;2023-07-20T11:02:26;24.70;74.40
29501;DHT22;16450;50.288;10.966;2023-07-20T11:05:39;24.80;75.20
29501;DHT22;16450;50.288;10.966;2023-07-20T11:08:43;25.10;71.10
29501;DHT22;16450;50.288;10.966;2023-07-20T11:11:47;25.30;74.40
29501;DHT22;16450;50.288;10.966;2023-07-20T11:14:55;25.40;72.80
29501;DHT22;16450;50.288;10.966;2023-07-20T11:18:11;25.60;71.40
29501;DHT22;16450;50.288;10.966;2023-07-20T11:21:14;25.80;67.30
29501;DHT22;16450;50.288;10.966;2023-07-20T11:24:18;26.10;71.10
29501;DHT22;16450;50.288;10.966;2023-07-20T11:27:20;26.20;69.40
29501;DHT22;16450;50.288;10.966;2023-07-20T11:30:24;26.30;68.30
29501;DHT22;16450;50.288;10.966;2023-07-20T11:33:28;26.50;67.90
29501;DHT22;16450;50.288;10.966;2023-07-20T11:36:31;26.60;67.20
29501;DHT22;16450;50.288;10.966;2023-07-20T11:39:35;26.70;66.80
29501;DHT22;16450;50.288;10.966;2023-07-20T11:42:37;26.70;63.90
29501;DHT22;16450;50.288;10.966;2023-07-20T11:45:42;26.60;60.90
29501;DHT22;16450;50.288;10.966;2023-07-20T11:48:45;26.50;59.50
29501;DHT22;16450;50.288;10.966;2023-07-20T11:51:47;26.10;58.60
29501;DHT22;16450;50.288;10.966;2023-07-20T11:54:49;25.80;59.10
29501;DHT22;16450;50.288;10.966;2023-07-20T11:58:02;25.60;59.20
29501;DHT22;16450;50.288;10.966;2023-07-20T12:01:05;25.30;58.70
29501;DHT22;16450;50.288;10.966;2023-07-20T12:04:07;25.10;59.90
29501;DHT22;16450;50.288;10.966;2023-07-20T12:07:09;24.90;59.60
29501;DHT22;16450;50.288;10.966;2023-07-20T12:10:11;24.70;60.20
29501;DHT22;16450;50.288;10.966;2023-07-20T12:13:14;24.50;60.30
29501;DHT22;16450;50.288;10.966;2023-07-20T12:16:16;24.40;60.90
29501;DHT22;16450;50.288;10.966;2023-07-20T12:19:18;24.20;61.10
29501;DHT22;16450;50.288;10.966;2023-07-20T12:22:20;24.10;61.60
29501;DHT22;16450;50.288;10.966;2023-07-20T12:25:22;24.10;62.10
29501;DHT22;16450;50.288;10.966;2023-07-20T12:28:24;24.00;62.40
29501;DHT22;16450;50.288;10.966;2023-07-20T12:31:27;23.90;62.60
29501;DHT22;16450;50.288;10.966;2023-07-20T12:34:31;23.80;63.50
29501;DHT22;16450;50.288;10.966;2023-07-20T12:37:33;23.80;63.70
29501;DHT22;16450;50.288;10.966;2023-07-20T12:40:35;23.80;64.10
29501;DHT22;16450;50.288;10.966;2023-07-20T12:43:38;24.00;62.90
29501;DHT22;16450;50.288;10.966;2023-07-20T12:46:39;23.90;60.50
29501;DHT22;16450;50.288;10.966;2023-07-20T12:49:42;23.80;60.00
29501;DHT22;16450;50.288;10.966;2023-07-20T12:52:47;23.90;60.80
29501;DHT22;16450;50.288;10.966;2023-07-20T12:55:48;24.00;60.90
29501;DHT22;16450;50.288;10.966;2023-07-20T12:58:51;24.00;60.80
29501;DHT22;16450;50.288;10.966;2023-07-20T13:01:53;24.10;60.30
29501;DHT22;16450;50.288;10.966;2023-07-20T13:04:55;24.20;60.40
29501;DHT22;16450;50.288;10.966;2023-07-20T13:07:57;24.30;60.10
29501;DHT22;16450;50.288;10.966;2023-07-20T13:11:02;24.40;59.60
29501;DHT22;16450;50.288;10.966;2023-07-20T13:14:06;24.50;59.80
29501;DHT22;16450;50.288;10.966;2023-07-20T13:17:08;24.60;58.90
29501;DHT22;16450;50.288;10.966;2023-07-20T13:20:12;24.70;59.50
29501;DHT22;16450;50.288;10.966;2023-07-20T13:23:13;24.70;59.60
29501;DHT22;16450;50.288;10.966;2023-07-20T13:26:16;24.90;59.30
29501;DHT22;16450;50.288;10.966;2023-07-20T13:29:18;24.90;58.50
29501;DHT22;16450;50.288;10.966;2023-07-20T13:32:21;25.00;57.40
29501;DHT22;16450;50.288;10.966;2023-07-20T13:35:25;25.00;57.40
29501;DHT22;16450;50.288;10.966;2023-07-20T13:38:27;24.80;56.60
29501;DHT22;16450;50.288;10.966;2023-07-20T13:41:29;24.70;56.80
29501;DHT22;16450;50.288;10.966;2023-07-20T13:44:34;24.60;57.30
29501;DHT22;16450;50.288;10.966;2023-07-20T13:47:36;24.60;56.80
29501;DHT22;16450;50.288;10.966;2023-07-20T13:50:38;24.50;57.00
29501;DHT22;16450;50.288;10.966;2023-07-20T13:53:45;24.50;57.20
29501;DHT22;16450;50.288;10.966;2023-07-20T13:56:50;24.60;57.10
29501;DHT22;16450;50.288;10.966;2023-07-20T13:59:53;24.70;57.00
29501;DHT22;16450;50.288;10.966;2023-07-20T14:02:54;24.90;56.80
29501;DHT22;16450;50.288;10.966;2023-07-20T14:05:59;24.90;56.30
29501;DHT22;16450;50.288;10.966;2023-07-20T14:09:04;25.20;56.10
29501;DHT22;16450;50.288;10.966;2023-07-20T14:12:06;25.40;55.80
29501;DHT22;16450;50.288;10.966;2023-07-20T14:15:10;25.40;55.20
29501;DHT22;16450;50.288;10.966;2023-07-20T14:18:12;25.40;54.60
29501;DHT22;16450;50.288;10.966;2023-07-20T14:21:16;25.30;54.20
29501;DHT22;16450;50.288;10.966;2023-07-20T14:24:18;25.20;54.20
29501;DHT22;16450;50.288;10.966;2023-07-20T14:27:20;25.00;54.70
29501;DHT22;16450;50.288;10.966;2023-07-20T14:30:22;24.90;54.90
29501;DHT22;16450;50.288;10.966;2023-07-20T14:33:24;24.90;54.80
29501;DHT22;16450;50.288;10.966;2023-07-20T14:36:26;25.00;54.90
29501;DHT22;16450;50.288;10.966;2023-07-20T14:39:28;24.90;54.20
29501;DHT22;16450;50.288;10.966;2023-07-20T14:42:30;24.90;53.60
29501;DHT22;16450;50.288;10.966;2023-07-20T14:45:33;24.90;54.50
29501;DHT22;16450;50.288;10.966;2023-07-20T14:48:35;24.80;54.50
29501;DHT22;16450;50.288;10.966;2023-07-20T14:51:37;24.80;55.20
29501;DHT22;16450;50.288;10.966;2023-07-20T14:54:44;24.90;55.30
29501;DHT22;16450;50.288;10.966;2023-07-20T14:57:48;25.10;55.00
29501;DHT22;16450;50.288;10.966;2023-07-20T15:00:50;25.20;54.70
29501;DHT22;16450;50.288;10.966;2023-07-20T15:03:52;25.30;55.10
29501;DHT22;16450;50.288;10.966;2023-07-20T15:06:58;25.40;54.10
29501;DHT22;16450;50.288;10.966;2023-07-20T15:10:01;25.30;53.40
29501;DHT22;16450;50.288;10.966;2023-07-20T15:13:03;25.30;53.40
29501;DHT22;16450;50.288;10.966;2023-07-20T15:16:05;25.10;53.00
29501;DHT22;16450;50.288;10.966;2023-07-20T15:19:08;25.00;52.90
29501;DHT22;16450;50.288;10.966;2023-07-20T15:22:10;24.80;52.80
29501;DHT22;16450;50.288;10.966;2023-07-20T15:25:13;24.70;53.00
29501;DHT22;16450;50.288;10.966;2023-07-20T15:28:15;24.60;53.00
29501;DHT22;16450;50.288;10.966;2023-07-20T15:31:17;24.50;53.30
29501;DHT22;16450;50.288;10.966;2023-07-20T15:34:19;24.40;53.30
29501;DHT22;16450;50.288;10.966;2023-07-20T15:37:21;24.30;53.00
29501;DHT22;16450;50.288;10.966;2023-07-20T15:40:23;24.30;52.80
29501;DHT22;16450;50.288;10.966;2023-07-20T15:43:25;24.20;53.00
29501;DHT22;16450;50.288;10.966;2023-07-20T15:49:42;24.10;52.10
29501;DHT22;16450;50.288;10.966;2023-07-20T15:52:44;24.10;53.30
29501;DHT22;16450;50.288;10.966;2023-07-20T15:55:53;24.00;53.30
29501;DHT22;16450;50.288;10.966;2023-07-20T15:58:56;24.00;52.90
29501;DHT22;16450;50.288;10.966;2023-07-20T16:01:59;24.00;53.20
29501;DHT22;16450;50.288;10.966;2023-07-20T16:05:01;24.00;53.60
29501;DHT22;16450;50.288;10.966;2023-07-20T16:08:06;24.00;53.60
29501;DHT22;16450;50.288;10.966;2023-07-20T16:11:09;24.00;53.50
29501;DHT22;16450;50.288;10.966;2023-07-20T16:14:11;24.10;53.90
29501;DHT22;16450;50.288;10.966;2023-07-20T16:17:13;24.10;53.90
29501;DHT22;16450;50.288;10.966;2023-07-20T16:20:15;24.10;53.50
29501;DHT22;16450;50.288;10.966;2023-07-20T16:23:18;24.10;52.80
29501;DHT22;16450;50.288;10.966;2023-07-20T16:26:20;23.90;52.80
29501;DHT22;16450;50.288;10.966;2023-07-20T16:29:23;24.00;52.70
29501;DHT22;16450;50.288;10.966;2023-07-20T16:32:26;23.90;52.70
29501;DHT22;16450;50.288;10.966;2023-07-20T16:35:28;23.90;53.10
29501;DHT22;16450;50.288;10.966;2023-07-20T16:38:49;23.90;52.80
29501;DHT22;16450;50.288;10.966;2023-07-20T16:42:11;23.80;53.00
29501;DHT22;16450;50.288;10.966;2023-07-20T16:45:14;23.80;53.10
29501;DHT22;16450;50.288;10.966;2023-07-20T16:48:16;23.80;53.00
29501;DHT22;16450;50.288;10.966;2023-07-20T16:51:20;23.70;52.90
29501;DHT22;16450;50.288;10.966;2023-07-20T16:54:23;23.70;53.30
29501;DHT22;16450;50.288;10.966;2023-07-20T16:57:25;23.70;53.60
29501;DHT22;16450;50.288;10.966;2023-07-20T17:00:26;23.60;53.30
29501;DHT22;16450;50.288;10.966;2023-07-20T17:03:28;23.60;53.30
29501;DHT22;16450;50.288;10.966;2023-07-20T17:06:31;23.60;53.10
29501;DHT22;16450;50.288;10.966;2023-07-20T17:09:34;23.70;53.40
29501;DHT22;16450;50.288;10.966;2023-07-20T17:12:37;23.70;53.50
29501;DHT22;16450;50.288;10.966;2023-07-20T17:15:40;23.70;53.60
29501;DHT22;16450;50.288;10.966;2023-07-20T17:18:42;23.80;53.50
29501;DHT22;16450;50.288;10.966;2023-07-20T17:21:44;23.90;53.30
29501;DHT22;16450;50.288;10.966;2023-07-20T17:24:47;23.90;53.20
29501;DHT22;16450;50.288;10.966;2023-07-20T17:27:51;23.90;53.10
29501;DHT22;16450;50.288;10.966;2023-07-20T17:30:57;23.90;52.80
29501;DHT22;16450;50.288;10.966;2023-07-20T17:34:02;23.80;52.40
29501;DHT22;16450;50.288;10.966;2023-07-20T17:37:04;23.80;52.20
29501;DHT22;16450;50.288;10.966;2023-07-20T17:40:11;23.70;52.10
29501;DHT22;16450;50.288;10.966;2023-07-20T17:43:16;23.70;52.40
29501;DHT22;16450;50.288;10.966;2023-07-20T17:46:18;23.60;52.50
29501;DHT22;16450;50.288;10.966;2023-07-20T17:49:23;23.50;52.50
29501;DHT22;16450;50.288;10.966;2023-07-20T17:52:25;23.40;52.50
29501;DHT22;16450;50.288;10.966;2023-07-20T17:55:27;23.40;52.60
29501;DHT22;16450;50.288;10.966;2023-07-20T17:58:30;23.40;52.90
29501;DHT22;16450;50.288;10.966;2023-07-20T18:01:32;23.30;52.70
29501;DHT22;16450;50.288;10.966;2023-07-20T18:04:34;23.20;52.60
29501;DHT22;16450;50.288;10.966;2023-07-20T18:07:36;23.20;52.40
29501;DHT22;16450;50.288;10.966;2023-07-20T18:10:38;23.10;52.20
29501;DHT22;16450;50.288;10.966;2023-07-20T18:13:41;23.10;52.10
29501;DHT22;16450;50.288;10.966;2023-07-20T18:16:43;23.00;52.20
29501;DHT22;16450;50.288;10.966;2023-07-20T18:19:46;22.90;52.20
29501;DHT22;16450;50.288;10.966;2023-07-20T18:22:49;22.80;52.10
29501;DHT22;16450;50.288;10.966;2023-07-20T18:25:52;22.80;52.30
29501;DHT22;16450;50.288;10.966;2023-07-20T18:28:54;22.70;52.30
29501;DHT22;16450;50.288;10.966;2023-07-20T18:31:56;22.60;52.40
29501;DHT22;16450;50.288;10.966;2023-07-20T18:34:58;22.50;52.50
29501;DHT22;16450;50.288;10.966;2023-07-20T18:38:00;22.40;52.40
29501;DHT22;16450;50.288;10.966;2023-07-20T18:41:02;22.30;52.20
29501;DHT22;16450;50.288;10.966;2023-07-20T18:44:04;22.20;52.20
29501;DHT22;16450;50.288;10.966;2023-07-20T18:47:07;22.10;52.40
29501;DHT22;16450;50.288;10.966;2023-07-20T18:50:10;22.10;52.50
29501;DHT22;16450;50.288;10.966;2023-07-20T18:53:12;22.00;52.50
29501;DHT22;16450;50.288;10.966;2023-07-20T18:56:14;21.90;53.40
29501;DHT22;16450;50.288;10.966;2023-07-20T18:59:16;21.80;52.70
29501;DHT22;16450;50.288;10.966;2023-07-20T19:02:19;21.70;52.70
29501;DHT22;16450;50.288;10.966;2023-07-20T19:05:22;21.60;52.70
29501;DHT22;16450;50.288;10.966;2023-07-20T19:08:24;21.50;53.40
29501;DHT22;16450;50.288;10.966;2023-07-20T19:11:26;21.50;52.80
29501;DHT22;16450;50.288;10.966;2023-07-20T19:14:30;21.40;52.90
29501;DHT22;16450;50.288;10.966;2023-07-20T19:17:32;21.30;52.90